Airfield :







YOU CAN JOIN US ON...

 
LOGIN :

Register | Disclaimer

   EN    FR    IT 

 









Legend :    VFR   Marginal VFR   IFR   Intensive IFR   Very Intensive IFR
Visi :
Ceiling :
>= 8 km
>= 3000ft
5 to 8 km
1000 to 3000 ft
1500m to 5 km
500 to 1000 ft
800 to 1500m
200 to 500 ft
< 800m
< 200 ft
Symbols :   Thunderstorms  Fog  Heavy snow  Heavy precipitations  Wind > 20 kt







- Airport Elevation : 20 ft
- IATA code : BOS


KBOS - General Edward Lawrence Logan International

CURRENT METAR :
  • 181854Z 07007KT 10SM OVC028 21/14 A2998 RMK AO2 SLP153 T02110144

EXPIRED METARs :
  • 181754Z 05010KT 10SM OVC027 22/13 A2999 RMK AO2 SLP156 60004 T02170133 10217 20194 58000
  • 181654Z 06012KT 10SM OVC028 21/14 A3001 RMK AO2 SLP163 T02110144

TAF KBOS
Valid from the 18 at 18:00 until the 20 at 00:00 UTC


181730Z 1818/1924 07010G18KT P6SM OVC027
FM182300 08007KT P6SM OVC025
FM190500 02004KT P6SM BKN010
FM191200 VRB03KT P6SM SCT025
FM191500 11006KT P6SM SCT030
FM192000 21007KT P6SM SCT100
KZBW FIR / North America



MET'MAP, your aeronautical weather chart ! - Copyright ORBIFLY December 2007 - Disclaimer

ORBIFLY MET'MAP TEAM :

Programming & Development : Alexandra Zaïnal
Concept & Development : Baudouin d'Aumeries
Co-Development & Prog : Marc-Olivier Méhu
Technical & hardware support : Manuel Goepfert

Contact : metmap@orbifly.com




SOURCES & CREDITS :

   NOAA